sensor_id;sensor_type;location;lat;lon;timestamp;P1;durP1;ratioP1;P2;durP2;ratioP2
46288;SDS011;63105;46.158;14.604;2023-06-26T00:00:42;8.37;;;6.17;;
46288;SDS011;63105;46.158;14.604;2023-06-26T00:03:07;7.60;;;5.80;;
46288;SDS011;63105;46.158;14.604;2023-06-26T00:05:33;7.70;;;6.30;;
46288;SDS011;63105;46.158;14.604;2023-06-26T00:07:59;8.07;;;6.40;;
46288;SDS011;63105;46.158;14.604;2023-06-26T00:10:25;8.82;;;6.25;;
46288;SDS011;63105;46.158;14.604;2023-06-26T00:12:50;8.07;;;6.45;;
46288;SDS011;63105;46.158;14.604;2023-06-26T00:15:15;8.50;;;6.20;;
46288;SDS011;63105;46.158;14.604;2023-06-26T00:17:41;7.87;;;5.77;;
46288;SDS011;63105;46.158;14.604;2023-06-26T00:20:06;7.83;;;5.80;;
46288;SDS011;63105;46.158;14.604;2023-06-26T00:22:31;7.40;;;6.03;;
46288;SDS011;63105;46.158;14.604;2023-06-26T00:24:57;7.65;;;5.47;;
46288;SDS011;63105;46.158;14.604;2023-06-26T00:27:22;8.20;;;6.43;;
46288;SDS011;63105;46.158;14.604;2023-06-26T00:29:47;8.00;;;6.13;;
46288;SDS011;63105;46.158;14.604;2023-06-26T00:32:12;7.67;;;6.30;;
46288;SDS011;63105;46.158;14.604;2023-06-26T00:34:37;7.67;;;5.83;;
46288;SDS011;63105;46.158;14.604;2023-06-26T00:37:03;7.50;;;5.87;;
46288;SDS011;63105;46.158;14.604;2023-06-26T00:39:28;9.95;;;6.45;;
46288;SDS011;63105;46.158;14.604;2023-06-26T00:41:54;9.03;;;6.93;;
46288;SDS011;63105;46.158;14.604;2023-06-26T00:44:19;8.27;;;6.47;;
46288;SDS011;63105;46.158;14.604;2023-06-26T00:46:45;8.48;;;6.85;;
46288;SDS011;63105;46.158;14.604;2023-06-26T00:49:10;7.70;;;6.03;;
46288;SDS011;63105;46.158;14.604;2023-06-26T00:51:35;8.60;;;6.35;;
46288;SDS011;63105;46.158;14.604;2023-06-26T00:54:00;8.05;;;6.00;;
46288;SDS011;63105;46.158;14.604;2023-06-26T00:56:26;7.60;;;6.22;;
46288;SDS011;63105;46.158;14.604;2023-06-26T00:58:52;8.05;;;6.22;;
46288;SDS011;63105;46.158;14.604;2023-06-26T01:01:17;9.43;;;6.20;;
46288;SDS011;63105;46.158;14.604;2023-06-26T01:03:48;9.02;;;6.68;;
46288;SDS011;63105;46.158;14.604;2023-06-26T01:06:16;8.02;;;6.53;;
46288;SDS011;63105;46.158;14.604;2023-06-26T01:08:42;7.72;;;6.10;;
46288;SDS011;63105;46.158;14.604;2023-06-26T01:11:08;7.40;;;5.53;;
46288;SDS011;63105;46.158;14.604;2023-06-26T01:13:34;9.23;;;6.60;;
46288;SDS011;63105;46.158;14.604;2023-06-26T01:15:59;7.78;;;6.20;;
46288;SDS011;63105;46.158;14.604;2023-06-26T01:18:25;9.85;;;6.38;;
46288;SDS011;63105;46.158;14.604;2023-06-26T01:20:50;7.10;;;5.72;;
46288;SDS011;63105;46.158;14.604;2023-06-26T01:23:22;8.00;;;6.22;;
46288;SDS011;63105;46.158;14.604;2023-06-26T01:28:32;7.25;;;5.82;;
46288;SDS011;63105;46.158;14.604;2023-06-26T01:30:58;8.70;;;6.40;;
46288;SDS011;63105;46.158;14.604;2023-06-26T01:33:24;8.85;;;6.80;;
46288;SDS011;63105;46.158;14.604;2023-06-26T01:35:49;8.70;;;6.47;;
46288;SDS011;63105;46.158;14.604;2023-06-26T01:38:19;8.85;;;6.35;;
46288;SDS011;63105;46.158;14.604;2023-06-26T01:40:44;7.20;;;5.75;;
46288;SDS011;63105;46.158;14.604;2023-06-26T01:43:23;7.53;;;6.03;;
46288;SDS011;63105;46.158;14.604;2023-06-26T01:45:50;8.20;;;5.85;;
46288;SDS011;63105;46.158;14.604;2023-06-26T01:48:16;9.63;;;6.05;;
46288;SDS011;63105;46.158;14.604;2023-06-26T01:50:45;8.07;;;6.28;;
46288;SDS011;63105;46.158;14.604;2023-06-26T01:53:11;8.18;;;6.00;;
46288;SDS011;63105;46.158;14.604;2023-06-26T01:55:47;7.55;;;5.97;;
46288;SDS011;63105;46.158;14.604;2023-06-26T01:58:14;7.63;;;5.97;;
46288;SDS011;63105;46.158;14.604;2023-06-26T02:00:41;8.30;;;6.57;;
46288;SDS011;63105;46.158;14.604;2023-06-26T02:03:07;7.70;;;6.15;;
46288;SDS011;63105;46.158;14.604;2023-06-26T02:05:32;8.20;;;6.17;;
46288;SDS011;63105;46.158;14.604;2023-06-26T02:07:58;8.13;;;6.43;;
46288;SDS011;63105;46.158;14.604;2023-06-26T02:10:23;7.93;;;6.18;;
46288;SDS011;63105;46.158;14.604;2023-06-26T02:12:48;7.93;;;6.10;;
46288;SDS011;63105;46.158;14.604;2023-06-26T02:15:13;8.17;;;6.47;;
46288;SDS011;63105;46.158;14.604;2023-06-26T02:17:38;7.97;;;5.97;;
46288;SDS011;63105;46.158;14.604;2023-06-26T02:20:04;7.70;;;6.33;;
46288;SDS011;63105;46.158;14.604;2023-06-26T02:22:30;7.90;;;5.70;;
46288;SDS011;63105;46.158;14.604;2023-06-26T02:24:56;9.07;;;6.32;;
46288;SDS011;63105;46.158;14.604;2023-06-26T02:27:21;9.07;;;6.53;;
46288;SDS011;63105;46.158;14.604;2023-06-26T02:29:46;7.60;;;6.15;;
46288;SDS011;63105;46.158;14.604;2023-06-26T02:32:11;8.33;;;6.43;;
46288;SDS011;63105;46.158;14.604;2023-06-26T02:34:37;8.25;;;6.65;;
46288;SDS011;63105;46.158;14.604;2023-06-26T02:37:02;8.57;;;6.27;;
46288;SDS011;63105;46.158;14.604;2023-06-26T02:39:27;8.05;;;6.40;;
46288;SDS011;63105;46.158;14.604;2023-06-26T02:41:52;8.37;;;6.63;;
46288;SDS011;63105;46.158;14.604;2023-06-26T02:44:18;8.35;;;6.60;;
46288;SDS011;63105;46.158;14.604;2023-06-26T02:46:43;8.38;;;6.70;;
46288;SDS011;63105;46.158;14.604;2023-06-26T02:49:08;10.00;;;6.97;;
46288;SDS011;63105;46.158;14.604;2023-06-26T02:51:34;8.32;;;6.78;;
46288;SDS011;63105;46.158;14.604;2023-06-26T02:53:59;8.93;;;6.90;;
46288;SDS011;63105;46.158;14.604;2023-06-26T02:56:25;8.65;;;6.50;;
46288;SDS011;63105;46.158;14.604;2023-06-26T02:58:54;9.60;;;6.90;;
46288;SDS011;63105;46.158;14.604;2023-06-26T03:01:19;8.73;;;6.85;;
46288;SDS011;63105;46.158;14.604;2023-06-26T03:03:45;8.48;;;6.60;;
46288;SDS011;63105;46.158;14.604;2023-06-26T03:06:12;7.95;;;6.47;;
46288;SDS011;63105;46.158;14.604;2023-06-26T03:08:37;10.55;;;6.88;;
46288;SDS011;63105;46.158;14.604;2023-06-26T03:11:04;8.23;;;6.78;;
46288;SDS011;63105;46.158;14.604;2023-06-26T03:13:29;7.83;;;6.20;;
46288;SDS011;63105;46.158;14.604;2023-06-26T03:15:54;8.37;;;6.73;;
46288;SDS011;63105;46.158;14.604;2023-06-26T03:18:19;8.30;;;6.60;;
46288;SDS011;63105;46.158;14.604;2023-06-26T03:20:44;9.07;;;6.37;;
46288;SDS011;63105;46.158;14.604;2023-06-26T03:23:10;8.85;;;6.68;;
46288;SDS011;63105;46.158;14.604;2023-06-26T03:25:35;8.47;;;6.53;;
46288;SDS011;63105;46.158;14.604;2023-06-26T03:28:00;9.10;;;6.83;;
46288;SDS011;63105;46.158;14.604;2023-06-26T03:30:26;8.43;;;7.00;;
46288;SDS011;63105;46.158;14.604;2023-06-26T03:32:51;8.27;;;6.60;;
46288;SDS011;63105;46.158;14.604;2023-06-26T03:35:16;8.03;;;6.40;;
46288;SDS011;63105;46.158;14.604;2023-06-26T03:37:41;7.57;;;6.20;;
46288;SDS011;63105;46.158;14.604;2023-06-26T03:40:07;9.27;;;7.13;;
46288;SDS011;63105;46.158;14.604;2023-06-26T03:42:32;8.60;;;6.43;;
46288;SDS011;63105;46.158;14.604;2023-06-26T03:44:57;8.23;;;6.40;;
46288;SDS011;63105;46.158;14.604;2023-06-26T03:47:22;8.90;;;6.53;;
46288;SDS011;63105;46.158;14.604;2023-06-26T03:49:48;8.57;;;6.88;;
46288;SDS011;63105;46.158;14.604;2023-06-26T03:52:13;8.20;;;6.73;;
46288;SDS011;63105;46.158;14.604;2023-06-26T03:54:38;7.90;;;6.03;;
46288;SDS011;63105;46.158;14.604;2023-06-26T03:57:03;7.40;;;6.45;;
46288;SDS011;63105;46.158;14.604;2023-06-26T03:59:29;7.93;;;6.28;;
46288;SDS011;63105;46.158;14.604;2023-06-26T04:01:54;8.47;;;6.50;;
46288;SDS011;63105;46.158;14.604;2023-06-26T04:04:19;7.57;;;6.40;;
46288;SDS011;63105;46.158;14.604;2023-06-26T04:06:44;9.53;;;6.20;;
46288;SDS011;63105;46.158;14.604;2023-06-26T04:09:09;9.10;;;6.47;;
46288;SDS011;63105;46.158;14.604;2023-06-26T04:11:34;8.17;;;6.43;;
46288;SDS011;63105;46.158;14.604;2023-06-26T04:14:00;6.77;;;5.83;;
46288;SDS011;63105;46.158;14.604;2023-06-26T04:16:25;7.23;;;5.80;;
46288;SDS011;63105;46.158;14.604;2023-06-26T04:18:51;7.77;;;5.77;;
46288;SDS011;63105;46.158;14.604;2023-06-26T04:21:16;6.90;;;5.43;;
46288;SDS011;63105;46.158;14.604;2023-06-26T04:23:42;7.20;;;5.78;;
46288;SDS011;63105;46.158;14.604;2023-06-26T04:26:07;6.70;;;5.17;;
46288;SDS011;63105;46.158;14.604;2023-06-26T04:28:33;6.82;;;5.50;;
46288;SDS011;63105;46.158;14.604;2023-06-26T04:30:59;7.88;;;5.68;;
46288;SDS011;63105;46.158;14.604;2023-06-26T04:33:25;7.18;;;5.90;;
46288;SDS011;63105;46.158;14.604;2023-06-26T04:35:51;6.93;;;5.50;;
46288;SDS011;63105;46.158;14.604;2023-06-26T04:38:16;7.55;;;5.97;;
46288;SDS011;63105;46.158;14.604;2023-06-26T04:40:41;6.90;;;5.70;;
46288;SDS011;63105;46.158;14.604;2023-06-26T04:43:07;7.55;;;5.82;;
46288;SDS011;63105;46.158;14.604;2023-06-26T04:45:32;7.83;;;5.73;;
46288;SDS011;63105;46.158;14.604;2023-06-26T04:47:57;7.43;;;5.73;;
46288;SDS011;63105;46.158;14.604;2023-06-26T04:50:22;6.82;;;5.35;;
46288;SDS011;63105;46.158;14.604;2023-06-26T04:52:48;7.18;;;5.13;;
46288;SDS011;63105;46.158;14.604;2023-06-26T04:55:13;7.43;;;5.87;;
46288;SDS011;63105;46.158;14.604;2023-06-26T04:57:38;7.93;;;6.00;;
46288;SDS011;63105;46.158;14.604;2023-06-26T05:00:04;7.60;;;6.27;;
46288;SDS011;63105;46.158;14.604;2023-06-26T05:02:35;7.18;;;5.50;;
46288;SDS011;63105;46.158;14.604;2023-06-26T05:05:01;7.10;;;5.53;;
46288;SDS011;63105;46.158;14.604;2023-06-26T05:07:26;7.97;;;6.35;;
46288;SDS011;63105;46.158;14.604;2023-06-26T05:09:51;9.10;;;6.60;;
46288;SDS011;63105;46.158;14.604;2023-06-26T05:12:16;7.93;;;6.40;;
46288;SDS011;63105;46.158;14.604;2023-06-26T05:14:41;7.33;;;6.00;;
46288;SDS011;63105;46.158;14.604;2023-06-26T05:17:07;7.00;;;5.73;;
46288;SDS011;63105;46.158;14.604;2023-06-26T05:19:32;7.23;;;5.67;;
46288;SDS011;63105;46.158;14.604;2023-06-26T05:21:57;7.07;;;5.73;;
46288;SDS011;63105;46.158;14.604;2023-06-26T05:24:23;6.93;;;5.57;;
46288;SDS011;63105;46.158;14.604;2023-06-26T05:26:49;8.02;;;6.07;;
46288;SDS011;63105;46.158;14.604;2023-06-26T05:29:14;6.60;;;5.70;;
46288;SDS011;63105;46.158;14.604;2023-06-26T05:31:40;8.77;;;7.20;;
46288;SDS011;63105;46.158;14.604;2023-06-26T05:34:05;6.93;;;5.78;;
46288;SDS011;63105;46.158;14.604;2023-06-26T05:36:32;8.65;;;6.32;;
46288;SDS011;63105;46.158;14.604;2023-06-26T05:38:59;8.65;;;6.43;;
46288;SDS011;63105;46.158;14.604;2023-06-26T05:41:24;7.20;;;6.00;;
46288;SDS011;63105;46.158;14.604;2023-06-26T05:43:49;7.90;;;6.10;;
46288;SDS011;63105;46.158;14.604;2023-06-26T05:46:14;8.52;;;6.72;;
46288;SDS011;63105;46.158;14.604;2023-06-26T05:48:40;8.25;;;6.40;;
46288;SDS011;63105;46.158;14.604;2023-06-26T05:51:05;7.90;;;5.90;;
46288;SDS011;63105;46.158;14.604;2023-06-26T05:53:31;7.93;;;6.55;;
46288;SDS011;63105;46.158;14.604;2023-06-26T05:55:56;8.63;;;6.93;;
46288;SDS011;63105;46.158;14.604;2023-06-26T05:58:23;8.50;;;6.28;;
46288;SDS011;63105;46.158;14.604;2023-06-26T06:00:48;8.10;;;6.47;;
46288;SDS011;63105;46.158;14.604;2023-06-26T06:03:14;8.10;;;6.30;;
46288;SDS011;63105;46.158;14.604;2023-06-26T06:05:39;7.25;;;5.50;;
46288;SDS011;63105;46.158;14.604;2023-06-26T06:08:04;7.53;;;5.90;;
46288;SDS011;63105;46.158;14.604;2023-06-26T06:10:29;7.27;;;5.67;;
46288;SDS011;63105;46.158;14.604;2023-06-26T06:12:54;8.17;;;6.33;;
46288;SDS011;63105;46.158;14.604;2023-06-26T06:15:20;8.40;;;5.87;;
46288;SDS011;63105;46.158;14.604;2023-06-26T06:17:45;7.57;;;5.80;;
46288;SDS011;63105;46.158;14.604;2023-06-26T06:20:10;7.82;;;6.15;;
46288;SDS011;63105;46.158;14.604;2023-06-26T06:22:35;8.05;;;5.97;;
46288;SDS011;63105;46.158;14.604;2023-06-26T06:25:00;7.43;;;6.00;;
46288;SDS011;63105;46.158;14.604;2023-06-26T06:27:26;9.65;;;6.13;;
46288;SDS011;63105;46.158;14.604;2023-06-26T06:29:51;9.77;;;7.53;;
46288;SDS011;63105;46.158;14.604;2023-06-26T06:32:17;13.70;;;8.40;;
46288;SDS011;63105;46.158;14.604;2023-06-26T06:34:42;11.13;;;8.35;;
46288;SDS011;63105;46.158;14.604;2023-06-26T06:37:08;11.03;;;8.07;;
46288;SDS011;63105;46.158;14.604;2023-06-26T06:39:33;8.77;;;7.27;;
46288;SDS011;63105;46.158;14.604;2023-06-26T06:41:58;8.83;;;6.60;;
46288;SDS011;63105;46.158;14.604;2023-06-26T06:44:23;7.67;;;5.97;;
46288;SDS011;63105;46.158;14.604;2023-06-26T06:46:48;9.30;;;6.87;;
46288;SDS011;63105;46.158;14.604;2023-06-26T06:49:14;8.27;;;6.88;;
46288;SDS011;63105;46.158;14.604;2023-06-26T06:51:39;8.33;;;6.77;;
46288;SDS011;63105;46.158;14.604;2023-06-26T06:54:04;7.97;;;6.13;;
46288;SDS011;63105;46.158;14.604;2023-06-26T06:56:29;7.80;;;6.18;;
46288;SDS011;63105;46.158;14.604;2023-06-26T06:58:55;8.13;;;6.82;;
46288;SDS011;63105;46.158;14.604;2023-06-26T07:01:20;8.70;;;7.10;;
46288;SDS011;63105;46.158;14.604;2023-06-26T07:03:45;9.37;;;7.10;;
46288;SDS011;63105;46.158;14.604;2023-06-26T07:06:10;8.00;;;6.43;;
46288;SDS011;63105;46.158;14.604;2023-06-26T07:08:35;8.47;;;6.63;;
46288;SDS011;63105;46.158;14.604;2023-06-26T07:11:00;9.47;;;7.50;;
46288;SDS011;63105;46.158;14.604;2023-06-26T07:13:26;7.90;;;6.85;;
46288;SDS011;63105;46.158;14.604;2023-06-26T07:15:51;9.55;;;6.82;;
46288;SDS011;63105;46.158;14.604;2023-06-26T07:18:17;9.20;;;7.17;;
46288;SDS011;63105;46.158;14.604;2023-06-26T07:20:42;10.90;;;8.27;;
46288;SDS011;63105;46.158;14.604;2023-06-26T07:23:07;12.23;;;9.00;;
46288;SDS011;63105;46.158;14.604;2023-06-26T07:25:33;10.65;;;7.85;;
46288;SDS011;63105;46.158;14.604;2023-06-26T07:27:58;9.57;;;7.43;;
46288;SDS011;63105;46.158;14.604;2023-06-26T07:30:23;9.87;;;7.90;;
46288;SDS011;63105;46.158;14.604;2023-06-26T07:32:49;12.55;;;9.90;;
46288;SDS011;63105;46.158;14.604;2023-06-26T07:35:14;12.88;;;10.48;;
46288;SDS011;63105;46.158;14.604;2023-06-26T07:37:40;12.00;;;9.35;;
46288;SDS011;63105;46.158;14.604;2023-06-26T07:40:06;9.23;;;7.68;;
46288;SDS011;63105;46.158;14.604;2023-06-26T07:42:31;9.50;;;6.90;;
46288;SDS011;63105;46.158;14.604;2023-06-26T07:44:56;8.03;;;6.87;;
46288;SDS011;63105;46.158;14.604;2023-06-26T07:47:21;9.80;;;7.03;;
46288;SDS011;63105;46.158;14.604;2023-06-26T07:49:47;8.47;;;7.03;;
46288;SDS011;63105;46.158;14.604;2023-06-26T07:52:12;11.10;;;8.10;;
46288;SDS011;63105;46.158;14.604;2023-06-26T07:54:38;10.10;;;7.20;;
46288;SDS011;63105;46.158;14.604;2023-06-26T07:57:04;8.83;;;6.73;;
46288;SDS011;63105;46.158;14.604;2023-06-26T07:59:33;8.45;;;6.60;;
46288;SDS011;63105;46.158;14.604;2023-06-26T08:01:59;12.32;;;8.00;;
46288;SDS011;63105;46.158;14.604;2023-06-26T08:04:25;10.52;;;7.38;;
46288;SDS011;63105;46.158;14.604;2023-06-26T08:06:51;10.15;;;7.93;;
46288;SDS011;63105;46.158;14.604;2023-06-26T08:09:17;8.27;;;6.53;;
46288;SDS011;63105;46.158;14.604;2023-06-26T08:11:43;7.85;;;6.53;;
46288;SDS011;63105;46.158;14.604;2023-06-26T08:14:09;9.55;;;7.10;;
46288;SDS011;63105;46.158;14.604;2023-06-26T08:16:34;7.90;;;6.53;;
46288;SDS011;63105;46.158;14.604;2023-06-26T08:18:59;8.80;;;7.67;;
46288;SDS011;63105;46.158;14.604;2023-06-26T08:21:25;7.97;;;6.45;;
46288;SDS011;63105;46.158;14.604;2023-06-26T08:23:50;8.38;;;6.40;;
46288;SDS011;63105;46.158;14.604;2023-06-26T08:26:15;7.50;;;6.23;;
46288;SDS011;63105;46.158;14.604;2023-06-26T08:28:40;8.50;;;6.60;;
46288;SDS011;63105;46.158;14.604;2023-06-26T08:31:05;8.10;;;6.20;;
46288;SDS011;63105;46.158;14.604;2023-06-26T08:33:31;8.47;;;6.23;;
46288;SDS011;63105;46.158;14.604;2023-06-26T08:35:56;9.00;;;6.57;;
46288;SDS011;63105;46.158;14.604;2023-06-26T08:38:21;7.13;;;5.63;;
46288;SDS011;63105;46.158;14.604;2023-06-26T08:40:46;8.17;;;6.10;;
46288;SDS011;63105;46.158;14.604;2023-06-26T08:43:12;10.02;;;5.78;;
46288;SDS011;63105;46.158;14.604;2023-06-26T08:45:37;7.37;;;5.63;;
46288;SDS011;63105;46.158;14.604;2023-06-26T08:48:02;6.43;;;5.33;;
46288;SDS011;63105;46.158;14.604;2023-06-26T08:50:30;6.45;;;5.22;;
46288;SDS011;63105;46.158;14.604;2023-06-26T08:55:23;5.95;;;5.07;;
46288;SDS011;63105;46.158;14.604;2023-06-26T08:57:49;6.43;;;4.93;;
46288;SDS011;63105;46.158;14.604;2023-06-26T09:00:15;6.97;;;5.20;;
46288;SDS011;63105;46.158;14.604;2023-06-26T09:02:40;6.32;;;5.28;;
46288;SDS011;63105;46.158;14.604;2023-06-26T09:05:06;5.78;;;4.88;;
46288;SDS011;63105;46.158;14.604;2023-06-26T09:07:31;5.78;;;4.53;;
46288;SDS011;63105;46.158;14.604;2023-06-26T09:09:56;6.70;;;4.50;;
46288;SDS011;63105;46.158;14.604;2023-06-26T09:12:22;6.80;;;4.40;;
46288;SDS011;63105;46.158;14.604;2023-06-26T09:14:47;6.55;;;4.70;;
46288;SDS011;63105;46.158;14.604;2023-06-26T09:17:13;5.55;;;4.45;;
46288;SDS011;63105;46.158;14.604;2023-06-26T09:19:38;7.18;;;4.60;;
46288;SDS011;63105;46.158;14.604;2023-06-26T09:22:03;4.90;;;4.20;;
46288;SDS011;63105;46.158;14.604;2023-06-26T09:24:29;5.33;;;4.00;;
46288;SDS011;63105;46.158;14.604;2023-06-26T09:26:55;5.35;;;4.38;;
46288;SDS011;63105;46.158;14.604;2023-06-26T09:29:20;5.90;;;4.38;;
46288;SDS011;63105;46.158;14.604;2023-06-26T09:31:45;5.43;;;4.60;;
46288;SDS011;63105;46.158;14.604;2023-06-26T09:34:11;5.38;;;4.15;;
46288;SDS011;63105;46.158;14.604;2023-06-26T09:36:36;6.55;;;4.63;;
46288;SDS011;63105;46.158;14.604;2023-06-26T09:39:02;5.30;;;4.10;;
46288;SDS011;63105;46.158;14.604;2023-06-26T09:41:29;4.72;;;3.95;;
46288;SDS011;63105;46.158;14.604;2023-06-26T09:43:56;4.82;;;3.67;;
46288;SDS011;63105;46.158;14.604;2023-06-26T09:46:25;5.40;;;4.15;;
46288;SDS011;63105;46.158;14.604;2023-06-26T09:49:08;5.35;;;4.00;;
46288;SDS011;63105;46.158;14.604;2023-06-26T09:51:34;5.68;;;4.13;;
46288;SDS011;63105;46.158;14.604;2023-06-26T09:54:00;5.35;;;4.35;;
46288;SDS011;63105;46.158;14.604;2023-06-26T09:56:25;5.40;;;4.57;;
46288;SDS011;63105;46.158;14.604;2023-06-26T09:58:51;5.05;;;4.07;;
46288;SDS011;63105;46.158;14.604;2023-06-26T10:01:17;4.68;;;3.92;;
46288;SDS011;63105;46.158;14.604;2023-06-26T10:03:42;4.93;;;4.20;;
46288;SDS011;63105;46.158;14.604;2023-06-26T10:06:07;5.88;;;4.30;;
46288;SDS011;63105;46.158;14.604;2023-06-26T10:08:34;5.10;;;4.20;;
46288;SDS011;63105;46.158;14.604;2023-06-26T10:10:59;5.15;;;4.22;;
46288;SDS011;63105;46.158;14.604;2023-06-26T10:13:27;4.93;;;4.03;;
46288;SDS011;63105;46.158;14.604;2023-06-26T10:15:55;5.70;;;4.50;;
46288;SDS011;63105;46.158;14.604;2023-06-26T10:18:22;5.57;;;4.32;;
46288;SDS011;63105;46.158;14.604;2023-06-26T10:20:49;5.47;;;4.40;;
46288;SDS011;63105;46.158;14.604;2023-06-26T10:23:15;5.18;;;4.20;;
46288;SDS011;63105;46.158;14.604;2023-06-26T10:25:42;7.68;;;4.85;;
46288;SDS011;63105;46.158;14.604;2023-06-26T10:28:09;6.43;;;5.00;;
46288;SDS011;63105;46.158;14.604;2023-06-26T10:30:37;6.53;;;5.05;;
46288;SDS011;63105;46.158;14.604;2023-06-26T10:33:04;6.88;;;4.93;;
46288;SDS011;63105;46.158;14.604;2023-06-26T10:35:30;7.03;;;4.90;;
46288;SDS011;63105;46.158;14.604;2023-06-26T10:38:00;6.00;;;4.72;;
46288;SDS011;63105;46.158;14.604;2023-06-26T10:40:26;5.28;;;4.40;;
46288;SDS011;63105;46.158;14.604;2023-06-26T10:42:52;5.85;;;4.70;;
46288;SDS011;63105;46.158;14.604;2023-06-26T10:45:29;5.30;;;3.92;;
46288;SDS011;63105;46.158;14.604;2023-06-26T10:47:55;5.07;;;4.10;;
46288;SDS011;63105;46.158;14.604;2023-06-26T10:50:23;5.25;;;4.07;;
46288;SDS011;63105;46.158;14.604;2023-06-26T10:55:32;6.82;;;4.63;;
46288;SDS011;63105;46.158;14.604;2023-06-26T10:57:57;5.18;;;4.57;;
46288;SDS011;63105;46.158;14.604;2023-06-26T11:00:23;5.87;;;3.90;;
46288;SDS011;63105;46.158;14.604;2023-06-26T11:02:48;5.47;;;4.20;;
46288;SDS011;63105;46.158;14.604;2023-06-26T11:05:23;5.10;;;4.28;;
46288;SDS011;63105;46.158;14.604;2023-06-26T11:13:17;5.28;;;4.45;;
46288;SDS011;63105;46.158;14.604;2023-06-26T11:15:43;5.60;;;4.57;;
46288;SDS011;63105;46.158;14.604;2023-06-26T11:18:12;5.40;;;4.50;;
46288;SDS011;63105;46.158;14.604;2023-06-26T11:20:37;5.97;;;4.40;;
46288;SDS011;63105;46.158;14.604;2023-06-26T11:23:03;5.50;;;4.43;;
46288;SDS011;63105;46.158;14.604;2023-06-26T11:25:29;6.30;;;5.28;;
46288;SDS011;63105;46.158;14.604;2023-06-26T11:27:55;6.10;;;4.38;;
46288;SDS011;63105;46.158;14.604;2023-06-26T11:30:24;6.35;;;4.53;;
46288;SDS011;63105;46.158;14.604;2023-06-26T11:32:49;5.65;;;4.15;;
46288;SDS011;63105;46.158;14.604;2023-06-26T11:35:24;4.60;;;3.58;;
46288;SDS011;63105;46.158;14.604;2023-06-26T11:37:59;5.50;;;4.20;;
46288;SDS011;63105;46.158;14.604;2023-06-26T11:40:26;5.60;;;4.50;;
46288;SDS011;63105;46.158;14.604;2023-06-26T11:42:52;5.85;;;4.80;;
46288;SDS011;63105;46.158;14.604;2023-06-26T11:45:17;5.03;;;4.13;;
46288;SDS011;63105;46.158;14.604;2023-06-26T11:47:44;5.72;;;4.35;;
46288;SDS011;63105;46.158;14.604;2023-06-26T11:50:14;5.47;;;4.43;;
46288;SDS011;63105;46.158;14.604;2023-06-26T11:52:41;5.00;;;4.00;;
46288;SDS011;63105;46.158;14.604;2023-06-26T11:55:06;6.30;;;4.57;;
46288;SDS011;63105;46.158;14.604;2023-06-26T11:57:32;6.05;;;4.40;;
46288;SDS011;63105;46.158;14.604;2023-06-26T11:59:57;6.17;;;4.20;;
46288;SDS011;63105;46.158;14.604;2023-06-26T12:02:22;4.45;;;3.50;;
46288;SDS011;63105;46.158;14.604;2023-06-26T12:04:48;5.32;;;4.30;;
46288;SDS011;63105;46.158;14.604;2023-06-26T12:07:13;5.10;;;4.20;;
46288;SDS011;63105;46.158;14.604;2023-06-26T12:09:40;5.15;;;3.78;;
46288;SDS011;63105;46.158;14.604;2023-06-26T12:12:06;4.40;;;3.60;;
46288;SDS011;63105;46.158;14.604;2023-06-26T12:14:31;5.10;;;4.10;;
46288;SDS011;63105;46.158;14.604;2023-06-26T12:17:03;5.10;;;4.10;;
46288;SDS011;63105;46.158;14.604;2023-06-26T12:19:28;5.60;;;4.18;;
46288;SDS011;63105;46.158;14.604;2023-06-26T12:21:54;5.68;;;4.45;;
46288;SDS011;63105;46.158;14.604;2023-06-26T12:24:22;4.70;;;3.75;;
46288;SDS011;63105;46.158;14.604;2023-06-26T12:26:49;5.45;;;4.25;;
46288;SDS011;63105;46.158;14.604;2023-06-26T12:29:15;5.72;;;3.83;;
46288;SDS011;63105;46.158;14.604;2023-06-26T12:31:42;5.00;;;4.20;;
46288;SDS011;63105;46.158;14.604;2023-06-26T12:34:11;5.25;;;4.00;;
46288;SDS011;63105;46.158;14.604;2023-06-26T12:36:41;4.88;;;4.00;;
46288;SDS011;63105;46.158;14.604;2023-06-26T12:39:08;4.90;;;3.97;;
46288;SDS011;63105;46.158;14.604;2023-06-26T12:41:34;5.25;;;3.95;;
46288;SDS011;63105;46.158;14.604;2023-06-26T12:43:59;5.13;;;3.90;;
46288;SDS011;63105;46.158;14.604;2023-06-26T12:46:33;5.20;;;4.17;;
46288;SDS011;63105;46.158;14.604;2023-06-26T12:49:00;5.18;;;3.97;;
46288;SDS011;63105;46.158;14.604;2023-06-26T12:51:25;6.87;;;4.57;;
46288;SDS011;63105;46.158;14.604;2023-06-26T12:53:52;5.22;;;3.80;;
46288;SDS011;63105;46.158;14.604;2023-06-26T12:56:17;4.93;;;3.50;;
46288;SDS011;63105;46.158;14.604;2023-06-26T12:58:43;5.00;;;3.80;;
46288;SDS011;63105;46.158;14.604;2023-06-26T13:01:08;6.10;;;4.63;;
46288;SDS011;63105;46.158;14.604;2023-06-26T13:03:39;5.35;;;4.50;;
46288;SDS011;63105;46.158;14.604;2023-06-26T13:06:05;5.63;;;4.20;;
46288;SDS011;63105;46.158;14.604;2023-06-26T13:08:30;5.13;;;4.10;;
46288;SDS011;63105;46.158;14.604;2023-06-26T13:10:55;5.00;;;3.60;;
46288;SDS011;63105;46.158;14.604;2023-06-26T13:13:20;5.47;;;4.37;;
46288;SDS011;63105;46.158;14.604;2023-06-26T13:15:45;4.93;;;3.80;;
46288;SDS011;63105;46.158;14.604;2023-06-26T13:18:11;5.30;;;4.13;;
46288;SDS011;63105;46.158;14.604;2023-06-26T13:20:36;4.82;;;3.80;;
46288;SDS011;63105;46.158;14.604;2023-06-26T13:23:01;5.30;;;3.90;;
46288;SDS011;63105;46.158;14.604;2023-06-26T13:25:27;5.25;;;3.75;;
46288;SDS011;63105;46.158;14.604;2023-06-26T13:27:52;4.80;;;3.77;;
46288;SDS011;63105;46.158;14.604;2023-06-26T13:30:17;4.60;;;3.57;;
46288;SDS011;63105;46.158;14.604;2023-06-26T13:32:42;4.80;;;3.40;;
46288;SDS011;63105;46.158;14.604;2023-06-26T13:35:08;4.75;;;3.78;;
46288;SDS011;63105;46.158;14.604;2023-06-26T13:37:35;5.28;;;4.32;;
46288;SDS011;63105;46.158;14.604;2023-06-26T13:40:00;5.53;;;4.30;;
46288;SDS011;63105;46.158;14.604;2023-06-26T13:42:27;5.28;;;4.15;;
46288;SDS011;63105;46.158;14.604;2023-06-26T13:44:52;5.40;;;3.70;;
46288;SDS011;63105;46.158;14.604;2023-06-26T13:47:18;5.32;;;4.00;;
46288;SDS011;63105;46.158;14.604;2023-06-26T13:49:43;6.53;;;4.30;;
46288;SDS011;63105;46.158;14.604;2023-06-26T13:52:08;5.13;;;3.90;;
46288;SDS011;63105;46.158;14.604;2023-06-26T13:54:34;4.87;;;3.87;;
46288;SDS011;63105;46.158;14.604;2023-06-26T13:56:59;5.20;;;4.40;;
46288;SDS011;63105;46.158;14.604;2023-06-26T13:59:27;5.50;;;4.28;;
46288;SDS011;63105;46.158;14.604;2023-06-26T14:01:52;5.53;;;4.28;;
46288;SDS011;63105;46.158;14.604;2023-06-26T14:04:17;5.00;;;3.90;;
46288;SDS011;63105;46.158;14.604;2023-06-26T14:06:42;5.03;;;4.10;;
46288;SDS011;63105;46.158;14.604;2023-06-26T14:09:08;5.63;;;4.03;;
46288;SDS011;63105;46.158;14.604;2023-06-26T14:11:33;5.55;;;4.00;;
46288;SDS011;63105;46.158;14.604;2023-06-26T14:13:59;4.65;;;3.88;;
46288;SDS011;63105;46.158;14.604;2023-06-26T14:16:24;5.80;;;4.90;;
46288;SDS011;63105;46.158;14.604;2023-06-26T14:18:50;6.40;;;5.30;;
46288;SDS011;63105;46.158;14.604;2023-06-26T14:21:15;5.30;;;4.20;;
46288;SDS011;63105;46.158;14.604;2023-06-26T14:23:41;5.05;;;3.80;;
46288;SDS011;63105;46.158;14.604;2023-06-26T14:26:06;5.00;;;4.07;;
46288;SDS011;63105;46.158;14.604;2023-06-26T14:28:31;5.17;;;3.93;;
46288;SDS011;63105;46.158;14.604;2023-06-26T14:30:56;5.30;;;3.97;;
46288;SDS011;63105;46.158;14.604;2023-06-26T14:33:21;5.20;;;4.20;;
46288;SDS011;63105;46.158;14.604;2023-06-26T14:35:47;5.30;;;4.53;;
46288;SDS011;63105;46.158;14.604;2023-06-26T14:38:12;5.70;;;4.40;;